Time;durP1;ratioP1;P1;durP2;ratioP2;P2;SDS_P1;SDS_P2;PMS_P1;PMS_P2;Temp;Humidity;BMP_temperature;BMP_pressure;BME280_temperature;BME280_humidity;BME280_pressure;Samples;Min_cycle;Max_cycle;Signal;HPM_P1;HPM_P2
2022/02/26 00:02:11;;;;;;;24.20;3.70;;;3.60;99.90;;;;;;5053458;28;20040;-51
2022/02/26 00:04:37;;;;;;;19.13;2.95;;;3.60;99.90;;;;;;5053486;28;20071;-51
2022/02/26 00:07:03;;;;;;;29.00;4.82;;;3.60;99.90;;;;;;5052344;28;20051;-50
2022/02/26 00:09:28;;;;;;;14.95;2.83;;;3.70;99.90;;;;;;5050028;28;20106;-50
2022/02/26 00:11:54;;;;;;;27.83;4.13;;;3.70;99.90;;;;;;5045946;28;20037;-51
2022/02/26 00:14:19;;;;;;;21.70;3.58;;;3.60;99.90;;;;;;5049148;28;20044;-50
2022/02/26 00:16:45;;;;;;;22.52;3.97;;;3.60;99.90;;;;;;5058621;28;20039;-51
2022/02/26 00:19:11;;;;;;;23.58;4.00;;;3.60;99.90;;;;;;5052650;28;20405;-52
2022/02/26 00:21:37;;;;;;;22.98;3.42;;;3.60;99.90;;;;;;5038729;28;20120;-50
2022/02/26 00:24:02;;;;;;;25.38;3.78;;;3.60;99.90;;;;;;5046907;28;20537;-51
2022/02/26 00:26:28;;;;;;;20.15;3.78;;;3.60;99.90;;;;;;5046961;28;20090;-50
2022/02/26 00:28:53;;;;;;;21.15;3.10;;;3.60;99.90;;;;;;5044131;28;20034;-50
2022/02/26 00:31:19;;;;;;;25.17;3.72;;;3.70;99.90;;;;;;5044470;28;20037;-48
2022/02/26 00:33:45;;;;;;;26.60;4.00;;;3.70;99.90;;;;;;5045147;28;20025;-51
2022/02/26 00:36:11;;;;;;;17.98;3.00;;;3.70;99.90;;;;;;5037455;28;20037;-53
2022/02/26 00:38:37;;;;;;;27.90;4.50;;;3.70;99.90;;;;;;5053308;28;20460;-50
2022/02/26 00:41:02;;;;;;;24.92;4.03;;;3.70;99.90;;;;;;5052232;28;20045;-50
2022/02/26 00:43:28;;;;;;;24.13;3.28;;;3.80;99.90;;;;;;5053012;28;20071;-50
2022/02/26 00:45:53;;;;;;;24.48;4.80;;;3.80;99.90;;;;;;5045963;28;20095;-50
2022/02/26 00:49:46;;;;;;;19.63;3.28;;;3.80;99.90;;;;;;5060744;28;20036;-51
2022/02/26 00:51:04;;;;;;;16.45;2.85;;;3.70;99.90;;;;;;5052485;28;20037;-50
2022/02/26 00:53:30;;;;;;;28.00;3.85;;;3.70;99.90;;;;;;5052936;28;20041;-50
2022/02/26 00:55:55;;;;;;;20.98;4.22;;;3.70;99.90;;;;;;5052761;28;20045;-50
2022/02/26 00:58:21;;;;;;;19.02;3.30;;;3.70;99.90;;;;;;5052348;28;20101;-52
2022/02/26 01:00:46;;;;;;;29.45;3.63;;;3.60;99.90;;;;;;5052070;28;20040;-50
2022/02/26 01:03:12;;;;;;;22.65;4.28;;;3.60;99.90;;;;;;5052574;28;20048;-50
2022/02/26 01:05:37;;;;;;;20.15;3.78;;;3.60;99.90;;;;;;5052625;28;20457;-50
2022/02/26 01:08:03;;;;;;;24.08;3.97;;;3.60;99.90;;;;;;5052409;28;20032;-48
2022/02/26 01:10:29;;;;;;;18.05;2.92;;;3.60;99.90;;;;;;5052481;28;20037;-51
2022/02/26 01:12:54;;;;;;;17.17;2.97;;;3.60;99.90;;;;;;5045590;28;20090;-50
2022/02/26 01:15:20;;;;;;;20.65;3.08;;;3.60;99.90;;;;;;5052043;28;20087;-51
2022/02/26 01:17:45;;;;;;;20.27;2.88;;;3.60;99.90;;;;;;5047661;28;20075;-50
2022/02/26 01:20:11;;;;;;;21.52;3.15;;;3.60;99.90;;;;;;5052676;28;20076;-49
2022/02/26 01:22:37;;;;;;;24.08;3.13;;;3.60;99.90;;;;;;5043886;28;20169;-51
2022/02/26 01:25:04;;;;;;;24.45;3.10;;;3.60;99.90;;;;;;5052300;28;20463;-51
2022/02/26 01:27:29;;;;;;;23.02;3.83;;;3.60;99.90;;;;;;5055629;28;20408;-50
2022/02/26 01:29:55;;;;;;;24.27;3.38;;;3.60;99.90;;;;;;5053993;28;20037;-51
2022/02/26 01:32:20;;;;;;;25.77;3.45;;;3.60;99.90;;;;;;5051776;28;20111;-53
2022/02/26 01:34:46;;;;;;;16.73;3.00;;;3.60;99.90;;;;;;5052299;28;20150;-49
2022/02/26 01:37:11;;;;;;;22.58;3.22;;;3.60;99.90;;;;;;5052168;28;20549;-50
2022/02/26 01:39:37;;;;;;;22.63;3.80;;;3.60;99.90;;;;;;5052004;28;20525;-49
2022/02/26 01:42:04;;;;;;;18.98;2.75;;;3.60;99.90;;;;;;5052087;28;20045;-49
2022/02/26 01:44:30;;;;;;;18.15;2.60;;;3.50;99.90;;;;;;5050114;28;20041;-49
2022/02/26 01:46:56;;;;;;;16.25;2.95;;;3.40;99.90;;;;;;5050477;28;20041;-48
2022/02/26 01:49:21;;;;;;;17.90;3.15;;;3.30;99.90;;;;;;5051618;28;20486;-49
2022/02/26 01:51:48;;;;;;;16.08;2.67;;;3.30;99.90;;;;;;5050636;28;20063;-48
2022/02/26 01:54:14;;;;;;;14.45;2.88;;;3.30;99.90;;;;;;5051650;28;20044;-49
2022/02/26 01:56:39;;;;;;;36.35;4.95;;;3.30;99.90;;;;;;5051254;28;20421;-49
2022/02/26 01:59:05;;;;;;;23.20;3.45;;;3.20;99.90;;;;;;5049570;28;20036;-49
2022/02/26 02:01:30;;;;;;;20.10;2.80;;;3.20;99.90;;;;;;5044679;28;20489;-50
2022/02/26 02:03:56;;;;;;;14.35;2.75;;;3.10;99.90;;;;;;5042333;28;20037;-49
2022/02/26 02:06:22;;;;;;;19.90;2.72;;;3.10;99.90;;;;;;5042006;28;20108;-48
2022/02/26 02:08:48;;;;;;;24.38;3.42;;;3.00;99.90;;;;;;5049993;28;20045;-49
2022/02/26 02:11:14;;;;;;;18.50;3.20;;;3.00;99.90;;;;;;5051297;28;20073;-48
2022/02/26 02:13:40;;;;;;;27.08;4.03;;;2.90;99.90;;;;;;5051241;28;20455;-49
2022/02/26 02:16:05;;;;;;;12.75;2.65;;;2.90;99.90;;;;;;5050034;28;20382;-49
2022/02/26 02:18:32;;;;;;;16.27;2.83;;;2.90;99.90;;;;;;5051377;28;20119;-48
2022/02/26 02:20:58;;;;;;;20.08;3.85;;;2.80;99.90;;;;;;5033533;28;20292;-50
2022/02/26 02:23:24;;;;;;;18.77;3.13;;;2.80;99.90;;;;;;5051224;28;20041;-51
2022/02/26 02:25:52;;;;;;;20.45;3.63;;;2.80;99.90;;;;;;5049986;28;20037;-50
2022/02/26 02:28:19;;;;;;;24.58;3.25;;;2.80;99.90;;;;;;5033225;28;20086;-50
2022/02/26 02:30:45;;;;;;;21.25;3.28;;;2.90;99.90;;;;;;5051095;28;20155;-50
2022/02/26 02:33:10;;;;;;;24.17;3.10;;;2.90;99.90;;;;;;5034753;28;20064;-50
2022/02/26 02:35:39;;;;;;;19.73;3.28;;;2.90;99.90;;;;;;5062603;28;20496;-50
2022/02/26 02:38:23;;;;;;;22.00;3.45;;;2.80;99.90;;;;;;5051097;28;20440;-49
2022/02/26 02:40:50;;;;;;;20.05;3.33;;;2.80;99.90;;;;;;5050936;28;20045;-49
2022/02/26 02:43:16;;;;;;;22.23;3.50;;;2.80;99.90;;;;;;5043398;28;20053;-50
2022/02/26 02:45:42;;;;;;;20.83;3.40;;;2.80;99.90;;;;;;5035297;28;20406;-48
2022/02/26 02:48:08;;;;;;;20.15;3.17;;;2.70;99.90;;;;;;5035145;28;20049;-50
2022/02/26 02:50:34;;;;;;;28.13;4.07;;;2.70;99.90;;;;;;5035426;28;20045;-49
2022/02/26 02:53:00;;;;;;;21.50;3.83;;;2.70;99.90;;;;;;5054951;28;20536;-50
2022/02/26 02:55:25;;;;;;;26.70;3.67;;;2.60;99.90;;;;;;5054815;28;20068;-50
2022/02/26 02:57:52;;;;;;;18.83;3.05;;;2.60;99.90;;;;;;5054720;28;20047;-50
2022/02/26 03:00:22;;;;;;;21.23;3.38;;;2.70;99.90;;;;;;5055073;28;20095;-49
2022/02/26 03:02:48;;;;;;;15.38;3.30;;;2.70;99.90;;;;;;5055076;28;20047;-50
2022/02/26 03:05:15;;;;;;;20.33;3.17;;;2.60;99.90;;;;;;5053789;28;20037;-50
2022/02/26 03:07:41;;;;;;;20.58;3.05;;;2.60;99.90;;;;;;5053701;28;20120;-50
2022/02/26 03:10:07;;;;;;;25.83;3.67;;;2.60;99.90;;;;;;5054456;28;20064;-52
2022/02/26 03:12:33;;;;;;;17.83;3.33;;;2.50;99.90;;;;;;5054809;28;20033;-50
2022/02/26 03:14:59;;;;;;;19.85;3.78;;;2.40;99.90;;;;;;5054500;28;20063;-50
2022/02/26 03:17:25;;;;;;;20.33;3.70;;;2.50;99.90;;;;;;5054657;28;20401;-50
2022/02/26 03:19:51;;;;;;;28.10;4.22;;;2.40;99.90;;;;;;5050551;28;20072;-51
2022/02/26 03:22:21;;;;;;;19.73;2.88;;;2.40;99.90;;;;;;5055509;28;20119;-49
2022/02/26 03:24:47;;;;;;;16.70;2.97;;;2.30;99.90;;;;;;5070628;28;20036;-50
2022/02/26 03:27:13;;;;;;;14.52;3.00;;;2.30;99.90;;;;;;5074592;28;20040;-52
2022/02/26 03:29:40;;;;;;;21.45;4.13;;;2.20;99.90;;;;;;5074438;28;20079;-49
2022/02/26 03:32:07;;;;;;;17.77;3.42;;;2.20;99.90;;;;;;5060642;28;20040;-49
2022/02/26 03:34:33;;;;;;;17.38;3.10;;;2.20;99.90;;;;;;5054345;28;20033;-50
2022/02/26 03:36:58;;;;;;;16.35;3.65;;;2.20;99.90;;;;;;5054036;28;20049;-50
2022/02/26 03:39:31;;;;;;;25.60;4.80;;;2.10;99.90;;;;;;5048845;28;20037;-50
2022/02/26 03:42:00;;;;;;;;;;;2.10;99.90;;;;;;5065714;28;20446;-51
2022/02/26 03:44:26;;;;;;;10.20;2.05;;;2.00;99.90;;;;;;5062574;28;19920;-51
2022/02/26 03:46:52;;;;;;;10.23;1.90;;;1.90;99.90;;;;;;5071450;28;20045;-50
2022/02/26 03:49:17;;;;;;;12.90;1.83;;;1.90;99.90;;;;;;5053734;28;20049;-51
2022/02/26 03:51:43;;;;;;;4.32;1.45;;;1.90;99.90;;;;;;5052705;28;20072;-50
2022/02/26 03:54:08;;;;;;;3.58;1.20;;;1.80;99.90;;;;;;5052961;28;20040;-50
2022/02/26 03:56:34;;;;;;;16.83;2.25;;;1.80;99.90;;;;;;5053892;28;20115;-50
2022/02/26 03:58:59;;;;;;;11.25;2.13;;;1.70;99.90;;;;;;5054069;28;20417;-50
2022/02/26 04:01:25;;;;;;;14.50;1.90;;;1.60;99.90;;;;;;5053906;28;20064;-51
2022/02/26 04:03:51;;;;;;;7.22;1.90;;;1.50;99.90;;;;;;5053453;28;20036;-50
2022/02/26 04:06:16;;;;;;;6.32;1.60;;;1.50;99.90;;;;;;5053344;28;20044;-50
2022/02/26 04:08:42;;;;;;;4.88;1.45;;;1.40;99.90;;;;;;5053636;28;20501;-48
2022/02/26 04:11:08;;;;;;;11.15;2.42;;;1.30;99.90;;;;;;5054322;28;20048;-49
2022/02/26 04:13:35;;;;;;;9.35;2.13;;;1.30;99.90;;;;;;5053489;28;20044;-48
2022/02/26 04:16:01;;;;;;;16.50;2.35;;;1.20;99.90;;;;;;5053906;28;20083;-49
2022/02/26 04:18:27;;;;;;;13.02;2.58;;;1.30;99.90;;;;;;5053478;28;20041;-50
2022/02/26 04:20:52;;;;;;;9.43;2.30;;;1.30;99.90;;;;;;5053207;28;20476;-48
2022/02/26 04:23:18;;;;;;;11.63;2.20;;;1.20;99.90;;;;;;5053399;28;20033;-48
2022/02/26 04:25:43;;;;;;;10.38;2.20;;;1.20;99.90;;;;;;5053383;28;20503;-50
2022/02/26 04:28:09;;;;;;;19.10;3.10;;;1.20;99.90;;;;;;5053431;28;20060;-49
2022/02/26 04:30:37;;;;;;;11.98;2.75;;;1.20;99.90;;;;;;5053397;28;20124;-48
2022/02/26 04:33:03;;;;;;;14.23;2.67;;;1.30;99.90;;;;;;5052880;28;20037;-50
2022/02/26 04:35:29;;;;;;;19.45;2.80;;;1.30;99.90;;;;;;5051852;28;20383;-49
2022/02/26 04:37:55;;;;;;;15.13;2.80;;;1.30;99.90;;;;;;5053040;28;20040;-48
2022/02/26 04:40:20;;;;;;;14.90;2.97;;;1.30;99.90;;;;;;5052816;28;20041;-53
2022/02/26 04:42:46;;;;;;;14.57;2.53;;;1.40;99.90;;;;;;5053334;28;20048;-50
2022/02/26 04:45:12;;;;;;;17.55;3.05;;;1.40;99.90;;;;;;5035086;28;20124;-50
2022/02/26 04:47:39;;;;;;;18.25;3.08;;;1.50;99.90;;;;;;5051349;28;20049;-50
2022/02/26 04:50:07;;;;;;;15.02;3.10;;;1.50;99.90;;;;;;5052737;28;20056;-48
2022/02/26 04:52:33;;;;;;;19.30;3.40;;;1.50;99.90;;;;;;5062182;28;20083;-51
2022/02/26 04:54:58;;;;;;;16.65;3.35;;;1.60;99.90;;;;;;5055985;28;20494;-50
2022/02/26 04:57:24;;;;;;;29.00;3.88;;;1.60;99.90;;;;;;5052625;28;20172;-50
2022/02/26 04:59:49;;;;;;;18.52;4.57;;;1.50;99.90;;;;;;5052782;28;20047;-49
2022/02/26 05:02:16;;;;;;;32.92;3.90;;;1.50;99.90;;;;;;5052105;28;20043;-50
2022/02/26 05:04:42;;;;;;;13.63;3.45;;;1.50;99.90;;;;;;5052319;28;20049;-50
2022/02/26 05:07:07;;;;;;;12.93;3.10;;;1.50;99.90;;;;;;5052347;28;20090;-50
2022/02/26 05:09:33;;;;;;;14.80;2.85;;;1.50;99.90;;;;;;5052561;28;20041;-50
2022/02/26 05:11:59;;;;;;;13.18;3.83;;;1.50;99.90;;;;;;5052660;28;20041;-50
2022/02/26 05:14:24;;;;;;;14.23;3.45;;;1.50;99.90;;;;;;5052056;28;20445;-49
2022/02/26 05:16:50;;;;;;;15.95;3.38;;;1.60;99.90;;;;;;5052241;28;20037;-50
2022/02/26 05:19:15;;;;;;;11.77;3.17;;;1.50;99.90;;;;;;5052023;28;20037;-50
2022/02/26 05:21:41;;;;;;;16.45;2.92;;;1.40;99.90;;;;;;5052461;28;20290;-50
2022/02/26 05:24:07;;;;;;;11.98;3.13;;;1.30;99.90;;;;;;5052344;28;20041;-50
2022/02/26 05:26:33;;;;;;;21.30;3.25;;;1.10;99.90;;;;;;5052003;28;20060;-49
2022/02/26 05:28:58;;;;;;;12.60;3.08;;;1.10;99.90;;;;;;5051787;28;20045;-49
2022/02/26 05:31:24;;;;;;;8.00;2.22;;;1.00;99.90;;;;;;5052009;28;20393;-49
2022/02/26 05:33:49;;;;;;;5.22;2.13;;;1.00;99.90;;;;;;5051999;28;20033;-49
2022/02/26 05:36:15;;;;;;;10.82;2.47;;;1.00;99.90;;;;;;5052066;28;20413;-50
2022/02/26 05:38:41;;;;;;;13.95;2.78;;;1.00;99.90;;;;;;5050876;28;20037;-49
2022/02/26 05:41:07;;;;;;;15.38;2.97;;;1.00;99.90;;;;;;5052033;28;20036;-48
2022/02/26 05:43:34;;;;;;;32.17;3.72;;;1.10;99.90;;;;;;5051828;28;20037;-49
2022/02/26 05:46:00;;;;;;;21.08;3.92;;;1.10;99.90;;;;;;5034207;28;20033;-50
2022/02/26 05:48:25;;;;;;;25.52;3.97;;;1.10;99.90;;;;;;5051565;28;20374;-50
2022/02/26 05:50:51;;;;;;;19.60;4.18;;;1.00;99.90;;;;;;5051806;28;20053;-48
2022/02/26 05:53:17;;;;;;;18.88;3.80;;;1.00;99.90;;;;;;5051795;28;20033;-50
2022/02/26 05:55:43;;;;;;;36.90;3.35;;;1.00;99.90;;;;;;5049585;28;20030;-50
2022/02/26 05:58:08;;;;;;;24.67;3.88;;;1.00;99.90;;;;;;5044884;28;20123;-50
2022/02/26 06:00:34;;;;;;;35.92;3.63;;;1.00;99.90;;;;;;5043253;28;20405;-51
2022/02/26 06:03:00;;;;;;;27.58;3.22;;;1.00;99.90;;;;;;5052509;28;20401;-50
2022/02/26 06:05:25;;;;;;;14.15;3.28;;;1.00;99.90;;;;;;5063339;28;20089;-48
2022/02/26 06:07:51;;;;;;;24.92;3.13;;;1.00;99.90;;;;;;5059370;28;20041;-49
2022/02/26 06:10:17;;;;;;;33.00;3.67;;;1.00;99.90;;;;;;5051516;28;20041;-50
2022/02/26 06:12:42;;;;;;;27.73;3.25;;;1.10;99.90;;;;;;5051100;28;20037;-51
2022/02/26 06:15:08;;;;;;;44.45;4.60;;;1.10;99.90;;;;;;5048104;28;20041;-54
2022/02/26 06:17:36;;;;;;;68.35;4.43;;;1.10;99.90;;;;;;5047965;28;20040;-50
2022/02/26 06:20:02;;;;;;;36.13;3.60;;;1.10;99.90;;;;;;5044873;28;20430;-49
2022/02/26 06:22:28;;;;;;;21.95;3.30;;;1.00;99.90;;;;;;5049915;28;20068;-52
2022/02/26 06:24:53;;;;;;;14.52;3.13;;;1.00;99.90;;;;;;5042024;28;20069;-49
2022/02/26 06:27:19;;;;;;;47.22;3.95;;;1.00;99.90;;;;;;5041737;28;20138;-52
2022/02/26 06:29:45;;;;;;;27.02;3.20;;;1.00;99.90;;;;;;5049633;28;20094;-51
2022/02/26 06:32:10;;;;;;;35.80;2.83;;;1.00;99.90;;;;;;5051002;28;20037;-53
2022/02/26 06:34:36;;;;;;;29.60;2.45;;;0.90;99.90;;;;;;5051367;28;20112;-53
2022/02/26 06:37:02;;;;;;;32.60;3.33;;;0.90;99.90;;;;;;5050645;28;20033;-53
2022/02/26 06:39:28;;;;;;;32.35;3.00;;;0.80;99.90;;;;;;5050206;28;20044;-53
2022/02/26 06:41:53;;;;;;;33.47;3.30;;;0.80;99.90;;;;;;5043409;28;20037;-53
2022/02/26 06:44:19;;;;;;;24.60;3.42;;;0.80;99.90;;;;;;5046500;28;20120;-53
2022/02/26 06:46:45;;;;;;;66.32;4.05;;;0.70;99.90;;;;;;5046905;28;20139;-49
2022/02/26 06:49:11;;;;;;;51.00;3.20;;;0.70;99.90;;;;;;5050280;28;20033;-50
2022/02/26 06:51:36;;;;;;;75.85;4.40;;;0.70;99.90;;;;;;5050000;28;20051;-50
2022/02/26 06:54:02;;;;;;;35.95;3.78;;;0.70;99.90;;;;;;5049023;28;20402;-53
2022/02/26 06:56:28;;;;;;;47.42;4.40;;;0.70;99.90;;;;;;5048449;28;20135;-53
2022/02/26 06:58:54;;;;;;;82.50;5.03;;;0.70;99.90;;;;;;5049213;28;20129;-53
2022/02/26 07:01:20;;;;;;;87.80;4.72;;;0.80;99.90;;;;;;5050554;28;20049;-51
2022/02/26 07:03:46;;;;;;;31.58;3.65;;;0.80;99.90;;;;;;5050813;28;20120;-49
2022/02/26 07:06:12;;;;;;;41.22;3.78;;;0.90;99.90;;;;;;5029910;28;20065;-49
2022/02/26 07:08:38;;;;;;;35.22;3.17;;;0.90;99.90;;;;;;5047128;28;20068;-50
2022/02/26 07:11:03;;;;;;;38.30;3.30;;;0.90;99.90;;;;;;5044499;28;20082;-49
2022/02/26 07:13:29;;;;;;;48.33;3.35;;;0.90;99.90;;;;;;5050431;28;20033;-48
2022/02/26 07:15:55;;;;;;;44.38;3.53;;;0.90;99.90;;;;;;5056738;28;20028;-50
2022/02/26 07:18:20;;;;;;;42.30;3.53;;;0.90;99.90;;;;;;5039703;28;20037;-50
2022/02/26 07:20:46;;;;;;;50.05;3.60;;;0.90;99.90;;;;;;5047531;28;20127;-50
2022/02/26 07:23:12;;;;;;;53.63;4.00;;;0.90;99.90;;;;;;5044925;28;20039;-50
2022/02/26 07:25:38;;;;;;;46.50;4.05;;;0.90;99.90;;;;;;5048750;28;20129;-49
2022/02/26 07:28:04;;;;;;;69.97;4.40;;;1.00;99.90;;;;;;5050719;28;20112;-50
2022/02/26 07:30:29;;;;;;;78.80;4.50;;;1.00;99.90;;;;;;5053468;28;20448;-48
2022/02/26 07:32:55;;;;;;;57.80;4.38;;;1.00;99.90;;;;;;5054012;28;20040;-50
2022/02/26 07:35:21;;;;;;;123.53;6.47;;;1.00;99.90;;;;;;5053929;28;20545;-50
2022/02/26 07:37:47;;;;;;;79.50;5.07;;;1.10;99.90;;;;;;5053691;28;20128;-48
2022/02/26 07:40:13;;;;;;;48.70;4.28;;;1.10;99.90;;;;;;5053868;28;20041;-47
2022/02/26 07:42:39;;;;;;;101.45;5.70;;;1.10;99.90;;;;;;5054298;28;20051;-50
2022/02/26 07:45:05;;;;;;;92.55;4.97;;;1.10;99.90;;;;;;5053928;28;20036;-49
2022/02/26 07:47:31;;;;;;;58.15;4.53;;;1.10;99.90;;;;;;5053814;28;20063;-50
2022/02/26 07:49:57;;;;;;;86.20;5.55;;;1.20;99.90;;;;;;5053829;28;20112;-49
2022/02/26 07:52:23;;;;;;;81.45;5.50;;;1.20;99.90;;;;;;5054108;28;20512;-49
2022/02/26 07:54:51;;;;;;;66.32;4.47;;;1.30;99.90;;;;;;5054051;28;20029;-49
2022/02/26 07:57:17;;;;;;;87.72;5.03;;;1.30;99.90;;;;;;5053805;28;20033;-48
2022/02/26 07:59:43;;;;;;;79.28;4.95;;;1.40;99.90;;;;;;5053492;28;20041;-50
2022/02/26 08:02:09;;;;;;;125.50;6.55;;;1.40;99.90;;;;;;5054017;28;20044;-48
2022/02/26 08:04:37;;;;;;;68.40;5.57;;;1.40;99.90;;;;;;5053895;28;20098;-48
2022/02/26 08:07:03;;;;;;;123.25;6.07;;;1.40;99.90;;;;;;5053418;28;20506;-49
2022/02/26 08:09:30;;;;;;;86.68;5.28;;;1.50;99.90;;;;;;5053460;28;20037;-49
2022/02/26 08:11:55;;;;;;;71.38;4.63;;;1.60;99.90;;;;;;5053627;28;20501;-51
2022/02/26 08:14:21;;;;;;;44.38;3.85;;;1.60;99.90;;;;;;5053929;28;20040;-48
2022/02/26 08:16:47;;;;;;;45.75;4.68;;;1.70;99.90;;;;;;5053650;28;20041;-50
2022/02/26 08:19:12;;;;;;;76.32;5.40;;;1.60;99.90;;;;;;5053442;28;20042;-50
2022/02/26 08:21:38;;;;;;;76.18;5.78;;;1.70;99.90;;;;;;5053584;28;20114;-49
2022/02/26 08:24:04;;;;;;;68.07;5.10;;;1.70;99.90;;;;;;5052290;28;20079;-48
2022/02/26 08:26:30;;;;;;;52.28;4.78;;;1.80;99.90;;;;;;5053214;28;20047;-48
2022/02/26 08:28:55;;;;;;;64.28;6.10;;;1.80;99.90;;;;;;5052862;28;20524;-50
2022/02/26 08:31:22;;;;;;;67.88;5.55;;;1.80;99.90;;;;;;5053483;28;20041;-50
2022/02/26 08:33:48;;;;;;;101.40;6.13;;;1.90;99.90;;;;;;5053136;28;20052;-48
2022/02/26 08:36:14;;;;;;;64.82;4.97;;;1.90;99.90;;;;;;5018989;28;20032;-49
2022/02/26 08:38:40;;;;;;;61.20;5.20;;;2.00;99.90;;;;;;5052975;28;20051;-48
2022/02/26 08:41:05;;;;;;;67.57;5.70;;;2.00;99.90;;;;;;5052812;28;20037;-48
2022/02/26 08:43:31;;;;;;;78.75;6.53;;;2.00;99.90;;;;;;5052920;28;20032;-49
2022/02/26 08:45:57;;;;;;;66.47;6.35;;;2.10;99.90;;;;;;5052900;28;20122;-49
2022/02/26 08:48:23;;;;;;;79.72;5.55;;;2.20;99.90;;;;;;5052932;28;20059;-48
2022/02/26 08:50:49;;;;;;;38.33;4.97;;;2.30;99.90;;;;;;5052720;28;20045;-49
2022/02/26 08:53:14;;;;;;;87.32;6.13;;;2.40;99.90;;;;;;5052926;28;20033;-48
2022/02/26 08:55:40;;;;;;;131.15;7.65;;;2.40;99.90;;;;;;5053307;28;20037;-48
2022/02/26 08:58:05;;;;;;;47.50;4.97;;;2.50;99.90;;;;;;5051262;28;20037;-50
2022/02/26 09:00:31;;;;;;;50.47;5.78;;;2.50;99.90;;;;;;5051502;28;20045;-49
2022/02/26 09:02:57;;;;;;;89.03;5.68;;;2.60;99.90;;;;;;5052745;28;20037;-47
2022/02/26 09:05:22;;;;;;;59.53;5.13;;;2.70;99.90;;;;;;5052736;28;20086;-49
2022/02/26 09:07:48;;;;;;;26.70;4.97;;;2.70;99.90;;;;;;5051051;28;20048;-49
2022/02/26 09:10:14;;;;;;;44.95;5.65;;;2.70;99.90;;;;;;5052223;28;20044;-49
2022/02/26 09:12:39;;;;;;;100.68;6.90;;;2.80;99.90;;;;;;5052373;28;20037;-47
2022/02/26 09:15:06;;;;;;;97.65;7.38;;;2.90;99.90;;;;;;5052528;28;20473;-48
2022/02/26 09:17:31;;;;;;;136.98;8.80;;;2.90;99.90;;;;;;5052326;28;20037;-50
2022/02/26 09:19:57;;;;;;;191.52;11.35;;;3.00;99.90;;;;;;5052167;28;20448;-48
2022/02/26 09:22:23;;;;;;;48.10;7.10;;;3.00;99.90;;;;;;5052393;28;20075;-50
2022/02/26 09:24:49;;;;;;;80.00;6.72;;;3.10;99.90;;;;;;5052257;28;20045;-49
2022/02/26 09:27:14;;;;;;;73.07;6.28;;;3.10;99.90;;;;;;5051900;28;20044;-47
2022/02/26 09:29:40;;;;;;;98.32;8.23;;;3.20;99.90;;;;;;5052218;28;20037;-50
2022/02/26 09:32:07;;;;;;;31.80;6.47;;;3.30;99.90;;;;;;5034630;28;20040;-48
2022/02/26 09:34:32;;;;;;;78.20;7.40;;;3.30;99.90;;;;;;5052140;28;20037;-49
2022/02/26 09:36:58;;;;;;;32.20;6.65;;;3.40;99.90;;;;;;5050615;28;20041;-48
2022/02/26 09:39:24;;;;;;;81.30;8.73;;;3.50;99.90;;;;;;5051800;28;20126;-50
2022/02/26 09:41:50;;;;;;;95.60;8.82;;;3.50;99.90;;;;;;5051844;28;20041;-48
2022/02/26 09:44:17;;;;;;;98.35;7.47;;;3.70;99.90;;;;;;5052063;28;20044;-49
2022/02/26 09:46:44;;;;;;;75.57;7.25;;;3.70;99.90;;;;;;5051856;28;20040;-48
2022/02/26 09:49:09;;;;;;;82.47;7.38;;;3.80;99.90;;;;;;5051684;28;20059;-48
2022/02/26 09:51:39;;;;;;;97.78;7.65;;;3.80;99.90;;;;;;5051157;28;20041;-49
2022/02/26 09:54:04;;;;;;;42.50;6.82;;;3.90;99.90;;;;;;5051688;28;20033;-50
2022/02/26 09:56:30;;;;;;;62.15;6.88;;;4.00;99.90;;;;;;5051411;28;20041;-49
2022/02/26 09:58:56;;;;;;;61.22;6.25;;;4.10;99.90;;;;;;5051973;28;20037;-48
2022/02/26 10:01:21;;;;;;;68.20;7.28;;;4.20;99.90;;;;;;5051533;28;20045;-49
2022/02/26 10:03:47;;;;;;;21.90;6.18;;;4.20;99.90;;;;;;5051664;28;20120;-49
2022/02/26 10:06:17;;;;;;;52.95;7.05;;;4.20;99.90;;;;;;5051444;28;20037;-49
2022/02/26 10:08:48;;;;;;;40.53;7.50;;;4.30;99.90;;;;;;5051444;28;20037;-50
2022/02/26 10:11:28;;;;;;;23.02;6.93;;;4.40;99.90;;;;;;5051688;28;20060;-51
2022/02/26 10:14:18;;;;;;;24.67;6.30;;;4.40;99.90;;;;;;5051543;28;20049;-50
2022/02/26 10:16:55;;;;;;;45.20;6.60;;;4.50;99.90;;;;;;5050021;28;20103;-53
2022/02/26 10:19:28;;;;;;;54.75;7.15;;;4.50;99.90;;;;;;5051033;28;20036;-51
2022/02/26 10:21:57;;;;;;;15.25;6.60;;;4.60;99.90;;;;;;5051655;28;20068;-51
2022/02/26 10:24:24;;;;;;;23.70;6.40;;;4.60;99.90;;;;;;5051499;28;20060;-50
2022/02/26 10:26:55;;;;;;;25.02;6.85;;;4.80;99.90;;;;;;5051344;28;20045;-53
2022/02/26 10:29:22;;;;;;;22.60;7.03;;;4.80;99.90;;;;;;5049810;28;20182;-49
2022/02/26 10:31:51;;;;;;;21.15;7.10;;;4.90;99.90;;;;;;5051159;28;20044;-49
2022/02/26 10:34:32;;;;;;;18.95;7.40;;;5.00;99.90;;;;;;5051457;28;20041;-51
2022/02/26 10:37:07;;;;;;;28.48;8.15;;;5.10;99.90;;;;;;5051275;28;20115;-50
2022/02/26 10:39:49;;;;;;;22.27;7.35;;;5.20;99.90;;;;;;5051162;28;20044;-50
2022/02/26 10:42:24;;;;;;;25.38;7.85;;;5.20;99.90;;;;;;5051214;28;20044;-52
2022/02/26 10:44:59;;;;;;;26.98;8.48;;;5.30;99.90;;;;;;5051291;28;20108;-51
2022/02/26 10:47:30;;;;;;;16.38;7.57;;;5.30;99.90;;;;;;5051062;28;20053;-50
2022/02/26 10:49:56;;;;;;;17.58;7.50;;;5.40;99.90;;;;;;5049863;28;20067;-52
2022/02/26 10:52:22;;;;;;;19.00;7.63;;;5.50;99.90;;;;;;5051171;28;20493;-49
2022/02/26 10:54:52;;;;;;;17.48;6.90;;;5.70;99.90;;;;;;5050898;28;20044;-53
2022/02/26 10:57:18;;;;;;;18.63;6.90;;;5.70;99.90;;;;;;5050623;28;20045;-50
2022/02/26 10:59:50;;;;;;;20.55;7.50;;;5.70;99.90;;;;;;5051148;28;20041;-51
2022/02/26 11:02:23;;;;;;;21.63;7.00;;;5.80;99.90;;;;;;5050554;28;20044;-51
2022/02/26 11:04:49;;;;;;;;;;;5.90;99.90;;;;;;5067010;28;20036;-52
2022/02/26 11:07:15;;;;;;;22.58;5.47;;;6.00;99.90;;;;;;5068716;28;19924;-50
2022/02/26 11:09:45;;;;;;;16.48;5.70;;;6.00;99.90;;;;;;5055069;28;20041;-53
2022/02/26 11:12:15;;;;;;;25.25;5.18;;;6.10;99.90;;;;;;5054995;28;20082;-50
2022/02/26 11:14:46;;;;;;;21.45;5.20;;;6.20;99.90;;;;;;5054870;28;20465;-50
2022/02/26 11:17:14;;;;;;;18.73;4.68;;;6.30;99.90;;;;;;5053226;28;20459;-50
2022/02/26 11:19:43;;;;;;;24.20;5.03;;;6.50;99.90;;;;;;5054614;28;20063;-50
2022/02/26 11:22:10;;;;;;;23.02;4.65;;;6.60;99.90;;;;;;5053757;28;20045;-50
2022/02/26 11:24:37;;;;;;;24.70;5.00;;;6.70;99.90;;;;;;5054805;28;20073;-50
2022/02/26 11:27:03;;;;;;;24.30;5.00;;;6.80;99.90;;;;;;5054135;28;20406;-52
2022/02/26 11:29:29;;;;;;;23.17;4.70;;;6.90;99.90;;;;;;5054410;28;20094;-49
2022/02/26 11:32:06;;;;;;;19.05;4.78;;;6.90;99.90;;;;;;5054610;28;20033;-51
2022/02/26 11:34:34;;;;;;;17.50;4.22;;;7.00;99.90;;;;;;5036777;28;20163;-52
2022/02/26 11:37:15;;;;;;;17.42;4.47;;;7.10;99.90;;;;;;5036435;28;20393;-52
2022/02/26 11:39:47;;;;;;;20.27;4.43;;;7.10;99.90;;;;;;5054494;28;20041;-50
2022/02/26 11:42:18;;;;;;;24.02;4.80;;;7.20;99.90;;;;;;5054456;28;20040;-51
2022/02/26 11:45:00;;;;;;;17.77;3.53;;;7.20;99.90;;;;;;5053763;28;20171;-50
2022/02/26 11:47:55;;;;;;;20.67;2.75;;;7.30;99.90;;;;;;5053175;28;20045;-51
2022/02/26 11:50:33;;;;;;;23.90;3.00;;;7.30;99.90;;;;;;5052641;28;20098;-52
2022/02/26 11:53:16;;;;;;;23.88;3.65;;;7.30;99.90;;;;;;5054068;28;20410;-50
2022/02/26 11:55:55;;;;;;;19.10;3.30;;;7.30;99.90;;;;;;5052854;28;20045;-49
2022/02/26 11:58:30;;;;;;;16.60;3.17;;;7.30;99.90;;;;;;5053994;28;20064;-50
2022/02/26 12:01:16;;;;;;;22.73;3.63;;;7.40;99.90;;;;;;5054025;28;20143;-49
2022/02/26 12:03:41;;;;;;;20.35;3.00;;;7.40;99.90;;;;;;5054015;28;20438;-50
2022/02/26 12:06:10;;;;;;;21.70;4.28;;;7.50;99.90;;;;;;5053574;28;20079;-51
2022/02/26 12:08:40;;;;;;;21.05;3.15;;;7.50;99.90;;;;;;5053762;28;20040;-51
2022/02/26 12:11:09;;;;;;;16.90;3.15;;;7.60;99.90;;;;;;5053764;28;20037;-51
2022/02/26 12:13:37;;;;;;;19.58;3.20;;;7.70;99.90;;;;;;5053170;28;20098;-52
2022/02/26 12:16:22;;;;;;;16.60;3.05;;;7.70;99.90;;;;;;5052056;28;20124;-51
2022/02/26 12:19:20;;;;;;;13.35;3.28;;;7.70;99.90;;;;;;5053762;28;20540;-50
2022/02/26 12:21:48;;;;;;;17.55;3.00;;;7.70;99.90;;;;;;5053753;28;20033;-50
2022/02/26 12:24:14;;;;;;;14.82;3.28;;;7.70;99.90;;;;;;5053114;28;20056;-51
2022/02/26 12:27:09;;;;;;;15.05;3.08;;;7.70;99.90;;;;;;5053305;28;20568;-50
2022/02/26 12:29:40;;;;;;;14.35;2.78;;;7.60;99.90;;;;;;5053482;28;20041;-50
2022/02/26 12:32:14;;;;;;;11.73;2.72;;;7.60;99.90;;;;;;5053458;28;20127;-52
2022/02/26 12:35:01;;;;;;;14.43;3.47;;;7.50;99.90;;;;;;5052063;28;20433;-50
2022/02/26 12:37:55;;;;;;;18.70;3.03;;;7.50;99.90;;;;;;5049832;28;20480;-51
2022/02/26 12:40:29;;;;;;;11.15;2.35;;;7.50;99.90;;;;;;5053898;28;20190;-50
2022/02/26 12:43:02;;;;;;;17.27;2.40;;;7.60;99.90;;;;;;5072955;28;20527;-51
2022/02/26 12:45:44;;;;;;;12.25;2.10;;;7.70;99.90;;;;;;5060793;28;20072;-50
2022/02/26 12:48:11;;;;;;;17.55;3.28;;;7.80;99.90;;;;;;5053228;28;20413;-50
2022/02/26 12:50:38;;;;;;;16.30;2.80;;;7.80;99.60;;;;;;5052968;28;20045;-50